Bellchester, Minnesota
Current Conditions -  °F | °C
As of 7:31 PM on Saturday 27 Dec 2014 (Local Time) from KRGK Reporting Station
Clear Clear  
Wind Chill:   Ceiling: Unl
Heat Index: 12°   Visibility: 10mi
Dew Point:   Wind: 7mph
Humidity: 79%   Direction: 290°WNW
Pressure: 30.13"   Gusts: NA
Location:  44.4081°N, 92.5457°W
Report Text: KRGK 280131Z AUTO 29006KT 10SM CLR M11/M14 A3013 RMK AO2
Loading
Personal Weather Stations






























Interactive Weather Map New forecast layout! Learn more

10-Day Weather Forecast

Advertisements
Track Severe Weather on mobile